Red Line, Iowa
Current Conditions -  °F | °C
As of 9:15 AM on Monday 24 Nov 2014 (Local Time) from KHNR Reporting Station
Overcast Overcast  
Wind Chill: 11°   Ceiling: 4000
Heat Index: 27°   Visibility: 10mi
Dew Point: 18°   Wind: 25mph
Humidity: 69%   Direction: 310°NW
Pressure: 29.66"   Gusts: 36mph
Location:  41.7338°N, 95.2696°W
Report Text: KHNR 241515Z AUTO 31022G31KT 10SM FEW034 BKN040 OVC070 M03/M08 A2966 RMK AO2
Loading
Personal Weather Stations






























Interactive Weather Map New forecast layout! Learn more

10-Day Weather Forecast

Advertisements
Track Severe Weather on mobile